Time;durP1;ratioP1;P1;durP2;ratioP2;P2;SDS_P1;SDS_P2;PMS_P1;PMS_P2;Temp;Humidity;BMP_temperature;BMP_pressure;BME280_temperature;BME280_humidity;BME280_pressure;Samples;Min_cycle;Max_cycle;Signal;HPM_P1;HPM_P2
2022/05/04 00:01:17;;;;;;;;;;;;;;;17.80;45.27;100770.28;5080748;28;822;-61
2022/05/04 00:03:43;;;;;;;;;;;;;;;17.76;45.22;100775.50;5079461;28;941;-62
2022/05/04 00:06:09;;;;;;;;;;;;;;;17.82;44.82;100772.75;5079094;28;1902;-61
2022/05/04 00:08:34;;;;;;;;;;;;;;;17.79;44.93;100774.13;5078907;28;782;-60
2022/05/04 00:10:59;;;;;;;;;;;;;;;17.82;45.22;100773.56;5078899;28;821;-62
2022/05/04 00:13:25;;;;;;;;;;;;;;;17.83;44.74;100782.66;5083611;28;905;-61
2022/05/04 00:15:50;;;;;;;;;;;;;;;17.85;45.03;100777.69;5078516;28;817;-61
2022/05/04 00:18:16;;;;;;;;;;;;;;;17.83;44.92;100774.41;5078732;28;1047;-62
2022/05/04 00:20:41;;;;;;;;;;;;;;;17.85;44.88;100772.19;5078409;28;994;-62
2022/05/04 00:23:07;;;;;;;;;;;;;;;17.87;44.89;100775.47;5078681;28;801;-63
2022/05/04 00:25:32;;;;;;;;;;;;;;;17.91;44.84;100779.34;5080538;28;1906;-62
2022/05/04 00:28:00;;;;;;;;;;;;;;;17.86;44.94;100790.34;5078422;28;837;-62
2022/05/04 00:30:26;;;;;;;;;;;;;;;17.85;44.88;100791.44;5079002;28;855;-62
2022/05/04 00:32:51;;;;;;;;;;;;;;;17.86;44.79;100790.34;5077977;28;831;-62
2022/05/04 00:35:17;;;;;;;;;;;;;;;17.78;44.70;100778.81;5078285;28;808;-62
2022/05/04 00:37:42;;;;;;;;;;;;;;;17.84;44.58;100781.53;5083062;28;1035;-62
2022/05/04 00:40:08;;;;;;;;;;;;;;;17.76;44.84;100780.19;5077809;28;761;-62
2022/05/04 00:42:33;;;;;;;;;;;;;;;17.83;45.09;100785.41;5078279;28;773;-62
2022/05/04 00:44:59;;;;;;;;;;;;;;;17.84;45.07;100787.88;5077723;28;1905;-62
2022/05/04 00:47:24;;;;;;;;;;;;;;;17.87;44.84;100786.47;5077744;28;841;-62
2022/05/04 00:49:50;;;;;;;;;;;;;;;17.82;45.10;100789.25;5078341;28;887;-61
2022/05/04 00:52:15;;;;;;;;;;;;;;;17.82;44.88;100789.25;5078700;28;967;-61
2022/05/04 00:54:42;;;;;;;;;;;;;;;17.82;44.94;100783.75;5077783;28;837;-61
2022/05/04 00:57:07;;;;;;;;;;;;;;;17.81;45.02;100793.09;5077823;28;857;-61
2022/05/04 00:59:33;;;;;;;;;;;;;;;17.76;45.13;100789.25;5083969;28;976;-62
2022/05/04 01:01:58;;;;;;;;;;;;;;;17.75;45.14;100784.88;5077273;28;919;-61
2022/05/04 01:04:24;;;;;;;;;;;;;;;17.77;45.10;100777.16;5083469;28;760;-61
2022/05/04 01:06:49;;;;;;;;;;;;;;;17.79;44.88;100785.97;5077916;28;1909;-61
2022/05/04 01:09:15;;;;;;;;;;;;;;;17.81;44.96;100777.44;5077801;28;834;-61
2022/05/04 01:11:41;;;;;;;;;;;;;;;17.87;45.26;100776.28;5077829;28;773;-61
2022/05/04 01:14:07;;;;;;;;;;;;;;;17.86;45.23;100779.31;5077571;28;1170;-61
2022/05/04 01:16:33;;;;;;;;;;;;;;;17.87;45.30;100780.97;5077723;28;825;-61
2022/05/04 01:18:58;;;;;;;;;;;;;;;17.84;45.22;100770.53;5077692;28;853;-61
2022/05/04 01:21:23;;;;;;;;;;;;;;;17.85;45.14;100769.41;5077953;28;758;-61
2022/05/04 01:23:49;;;;;;;;;;;;;;;17.76;45.13;100770.00;5077106;28;749;-61
2022/05/04 01:26:17;;;;;;;;;;;;;;;17.81;44.83;100771.94;5075562;28;1898;-62
2022/05/04 01:28:43;;;;;;;;;;;;;;;17.80;44.67;100775.78;5081468;28;803;-62
2022/05/04 01:31:09;;;;;;;;;;;;;;;17.76;44.84;100775.50;5077413;28;828;-62
2022/05/04 01:33:34;;;;;;;;;;;;;;;17.76;44.52;100774.69;5077493;28;899;-61
2022/05/04 01:36:00;;;;;;;;;;;;;;;17.68;44.77;100775.28;5081217;28;1029;-61
2022/05/04 01:38:25;;;;;;;;;;;;;;;17.72;44.48;100773.63;5076789;28;853;-61
2022/05/04 01:40:51;;;;;;;;;;;;;;;17.71;44.70;100777.47;5077831;28;874;-62
2022/05/04 01:43:16;;;;;;;;;;;;;;;17.72;44.45;100777.19;5076921;28;830;-62
2022/05/04 01:45:42;;;;;;;;;;;;;;;17.68;44.47;100781.59;5082610;28;1906;-62
2022/05/04 01:48:07;;;;;;;;;;;;;;;17.71;44.53;100778.31;5077087;28;919;-62
2022/05/04 01:50:33;;;;;;;;;;;;;;;17.67;44.42;100779.97;5076538;28;868;-62
2022/05/04 01:52:58;;;;;;;;;;;;;;;17.66;44.58;100783.81;5076490;28;742;-62
2022/05/04 01:55:23;;;;;;;;;;;;;;;17.72;44.36;100779.09;5079729;28;794;-62
2022/05/04 01:57:49;;;;;;;;;;;;;;;17.63;44.57;100792.63;5075769;28;865;-62
2022/05/04 02:00:14;;;;;;;;;;;;;;;17.60;44.32;100791.25;5081774;28;977;-62
2022/05/04 02:02:43;;;;;;;;;;;;;;;17.60;44.15;100787.69;5076782;28;857;-62
2022/05/04 02:05:08;;;;;;;;;;;;;;;17.56;44.28;100792.91;5076052;28;1978;-62
2022/05/04 02:07:34;;;;;;;;;;;;;;;17.53;44.49;100787.97;5076351;28;797;-62
2022/05/04 02:10:00;;;;;;;;;;;;;;;17.56;44.33;100790.16;5077021;28;870;-62
2022/05/04 02:12:26;;;;;;;;;;;;;;;17.54;44.19;100792.34;5075823;28;781;-62
2022/05/04 02:14:51;;;;;;;;;;;;;;;17.54;44.08;100799.78;5076273;28;1063;-62
2022/05/04 02:17:17;;;;;;;;;;;;;;;17.55;44.03;100802.25;5076802;28;864;-62
2022/05/04 02:19:42;;;;;;;;;;;;;;;17.50;43.95;100805.03;5075691;28;815;-62
2022/05/04 02:22:08;;;;;;;;;;;;;;;17.49;43.81;100808.03;5076351;28;798;-62
2022/05/04 02:24:33;;;;;;;;;;;;;;;17.40;44.06;100811.38;5076375;28;881;-62
2022/05/04 02:26:59;;;;;;;;;;;;;;;17.42;43.73;100806.44;5076390;28;1906;-62
2022/05/04 02:29:24;;;;;;;;;;;;;;;17.38;43.70;100813.56;5076021;28;782;-62
2022/05/04 02:31:50;;;;;;;;;;;;;;;17.35;43.63;100808.63;5078081;28;861;-62
2022/05/04 02:34:15;;;;;;;;;;;;;;;17.33;43.29;100813.56;5080670;28;833;-62
2022/05/04 02:39:25;;;;;;;;;;;;;;;17.25;43.23;100814.13;5076517;28;841;-62
2022/05/04 02:41:52;;;;;;;;;;;;;;;17.35;43.45;100818.78;5076429;28;733;-62
2022/05/04 02:44:17;;;;;;;;;;;;;;;17.42;43.65;100825.66;5076650;28;947;-61
2022/05/04 02:46:43;;;;;;;;;;;;;;;17.45;43.96;100825.09;5079186;28;1976;-61
2022/05/04 02:49:08;;;;;;;;;;;;;;;17.52;44.12;100824.00;5077235;28;926;-63
2022/05/04 02:51:34;;;;;;;;;;;;;;;17.59;44.26;100828.09;5075925;28;794;-63
2022/05/04 02:53:59;;;;;;;;;;;;;;;17.62;44.54;100821.22;5076482;28;722;-63
2022/05/04 02:56:25;;;;;;;;;;;;;;;17.69;44.51;100830.00;5076285;28;950;-63
2022/05/04 02:58:53;;;;;;;;;;;;;;;17.66;44.80;100816.81;5085637;28;850;-63
2022/05/04 03:04:04;;;;;;;;;;;;;;;17.70;44.73;100830.84;5078861;28;800;-63
2022/05/04 03:06:30;;;;;;;;;;;;;;;17.67;44.86;100837.72;5079298;28;1906;-63
2022/05/04 03:08:55;;;;;;;;;;;;;;;17.70;44.68;100839.91;5080113;28;749;-61
2022/05/04 03:14:07;;;;;;;;;;;;;;;17.65;44.63;100844.59;5079702;28;1305;-62
2022/05/04 03:16:33;;;;;;;;;;;;;;;17.66;44.79;100844.31;5080196;28;758;-61
2022/05/04 03:18:58;;;;;;;;;;;;;;;17.70;44.62;100848.16;5080129;28;916;-60
2022/05/04 03:21:24;;;;;;;;;;;;;;;17.67;44.45;100854.22;5079876;28;808;-60
2022/05/04 03:23:49;;;;;;;;;;;;;;;17.67;44.45;100848.72;5085093;28;777;-60
2022/05/04 03:26:14;;;;;;;;;;;;;;;17.71;44.52;100854.47;5079932;28;1913;-60
2022/05/04 03:28:40;;;;;;;;;;;;;;;17.68;44.61;100849.53;5079124;28;1110;-61
2022/05/04 03:31:05;;;;;;;;;;;;;;;17.67;44.29;100856.97;5096346;28;808;-60
2022/05/04 03:33:31;;;;;;;;;;;;;;;17.65;44.33;100856.41;5099161;28;737;-59
2022/05/04 03:35:56;;;;;;;;;;;;;;;17.62;44.35;100860.53;5082222;28;1094;-61
2022/05/04 03:38:22;;;;;;;;;;;;;;;17.62;44.44;100868.78;5079312;28;910;-62
2022/05/04 03:40:47;;;;;;;;;;;;;;;17.61;44.18;100871.81;5079516;28;793;-62
2022/05/04 03:43:12;;;;;;;;;;;;;;;17.61;44.16;100880.06;5079004;28;762;-62
2022/05/04 03:45:38;;;;;;;;;;;;;;;17.62;44.31;100877.03;5079316;28;1901;-62
2022/05/04 03:48:03;;;;;;;;;;;;;;;17.62;44.06;100873.47;5079389;28;1487;-62
2022/05/04 03:50:29;;;;;;;;;;;;;;;17.64;44.19;100882.25;5091398;28;932;-61
2022/05/04 03:52:54;;;;;;;;;;;;;;;17.72;44.21;100878.94;5098607;28;778;-63
2022/05/04 03:55:20;;;;;;;;;;;;;;;17.76;44.25;100888.28;5097614;28;1478;-62
2022/05/04 03:57:45;;;;;;;;;;;;;;;17.77;44.44;100880.88;5098457;28;836;-65
2022/05/04 04:00:11;;;;;;;;;;;;;;;17.80;44.48;100885.81;5082610;28;1130;-65
2022/05/04 04:02:36;;;;;;;;;;;;;;;17.85;44.71;100887.69;5083480;28;844;-66
2022/05/04 04:05:02;;;;;;;;;;;;;;;17.90;44.50;100891.25;5082883;28;1898;-63
2022/05/04 04:07:27;;;;;;;;;;;;;;;17.84;44.94;100892.41;5077532;28;812;-62
2022/05/04 04:09:53;;;;;;;;;;;;;;;17.88;45.05;100887.97;5078539;28;781;-63
2022/05/04 04:12:18;;;;;;;;;;;;;;;17.99;44.64;100894.28;5078928;28;853;-62
2022/05/04 04:14:44;;;;;;;;;;;;;;;17.98;45.15;100895.41;5083186;28;973;-62
2022/05/04 04:17:09;;;;;;;;;;;;;;;17.99;45.39;100899.78;5078780;28;733;-63
2022/05/04 04:19:36;;;;;;;;;;;;;;;18.05;45.41;100906.94;5077750;28;1016;-64
2022/05/04 04:22:01;;;;;;;;;;;;;;;18.03;45.38;100906.38;5078792;28;890;-63
2022/05/04 04:24:27;;;;;;;;;;;;;;;18.09;45.53;100897.03;5077569;28;1567;-63
2022/05/04 04:26:52;;;;;;;;;;;;;;;18.13;45.62;100895.34;5079889;28;1898;-63
2022/05/04 04:29:18;;;;;;;;;;;;;;;18.14;45.99;100893.41;5078655;28;1397;-64
2022/05/04 04:31:43;;;;;;;;;;;;;;;18.19;46.07;100895.31;5078717;28;846;-62
2022/05/04 04:34:09;;;;;;;;;;;;;;;18.19;46.13;100896.16;5078568;28;828;-62
2022/05/04 04:36:34;;;;;;;;;;;;;;;18.22;46.09;100894.78;5078098;28;983;-61
2022/05/04 04:39:00;;;;;;;;;;;;;;;18.21;46.00;100907.69;5078557;28;869;-61
2022/05/04 04:41:25;;;;;;;;;;;;;;;18.24;46.07;100896.16;5083362;28;853;-61
2022/05/04 04:43:50;;;;;;;;;;;;;;;18.30;45.97;100910.72;5078929;28;1017;-63
2022/05/04 04:46:16;;;;;;;;;;;;;;;18.29;46.25;100906.31;5080388;28;1981;-63
2022/05/04 04:48:41;;;;;;;;;;;;;;;18.32;45.67;100908.47;5081657;28;1269;-63
2022/05/04 04:51:07;;;;;;;;;;;;;;;18.19;45.45;100906.31;5078513;28;1028;-63
2022/05/04 04:53:33;;;;;;;;;;;;;;;18.07;44.81;100903.91;5078507;28;1276;-64
2022/05/04 04:55:58;;;;;;;;;;;;;;;17.89;43.77;100911.66;5078688;28;1363;-62
2022/05/04 04:58:25;;;;;;;;;;;;;;;17.65;42.74;100907.84;5080217;28;1355;-61
2022/05/04 05:00:51;;;;;;;;;;;;;;;17.51;41.62;100904.81;5091348;28;1237;-62
2022/05/04 05:03:16;;;;;;;;;;;;;;;17.39;40.78;100907.84;5097455;28;945;-64
2022/05/04 05:05:42;;;;;;;;;;;;;;;17.24;40.23;100911.44;5084163;28;1902;-62
2022/05/04 05:08:08;;;;;;;;;;;;;;;17.14;40.01;100905.94;5078013;28;849;-61
2022/05/04 05:10:34;;;;;;;;;;;;;;;17.07;39.77;100903.47;5082963;28;1064;-63
2022/05/04 05:12:59;;;;;;;;;;;;;;;17.17;41.20;100917.22;5096805;28;990;-64
2022/05/04 05:18:09;;;;;;;;;;;;;;;18.11;46.29;100908.56;5089044;28;826;-64
2022/05/04 05:20:34;;;;;;;;;;;;;;;18.47;47.09;100905.66;5077105;28;962;-63
2022/05/04 05:23:00;;;;;;;;;;;;;;;18.72;47.27;100909.38;5077663;28;880;-61
2022/05/04 05:25:25;;;;;;;;;;;;;;;18.73;47.16;100913.78;5077573;28;1975;-64
2022/05/04 05:27:51;;;;;;;;;;;;;;;18.32;46.70;100913.19;5077402;28;817;-62
2022/05/04 05:30:16;;;;;;;;;;;;;;;18.01;45.22;100919.59;5077591;28;776;-65
2022/05/04 05:32:42;;;;;;;;;;;;;;;17.72;43.35;100920.19;5077555;28;778;-64
2022/05/04 05:35:07;;;;;;;;;;;;;;;17.53;42.11;100919.09;5083763;28;802;-65
2022/05/04 05:37:33;;;;;;;;;;;;;;;17.36;41.43;100920.25;5077393;28;752;-63
2022/05/04 05:39:58;;;;;;;;;;;;;;;17.22;40.40;100925.47;5077416;28;809;-62
2022/05/04 05:42:24;;;;;;;;;;;;;;;17.05;40.13;100920.19;5075362;28;1027;-64
2022/05/04 05:44:49;;;;;;;;;;;;;;;17.02;39.78;100919.94;5077163;28;1984;-64
2022/05/04 05:47:15;;;;;;;;;;;;;;;16.97;40.37;100915.28;5076842;28;1018;-62
2022/05/04 05:49:40;;;;;;;;;;;;;;;17.08;41.24;100925.19;5081217;28;853;-60
2022/05/04 05:52:07;;;;;;;;;;;;;;;17.22;42.64;100921.88;5083885;28;1273;-61
2022/05/04 05:54:32;;;;;;;;;;;;;;;17.42;43.68;100926.56;5077411;28;1202;-62
2022/05/04 05:56:58;;;;;;;;;;;;;;;17.53;44.46;100919.94;5076419;28;761;-63
2022/05/04 05:59:23;;;;;;;;;;;;;;;17.62;44.79;100922.97;5077957;28;1031;-63
2022/05/04 06:01:49;;;;;;;;;;;;;;;17.74;45.02;100926.25;5082908;28;1003;-62
2022/05/04 06:04:14;;;;;;;;;;;;;;;17.75;45.23;100922.41;5082873;28;1285;-62
2022/05/04 06:06:40;;;;;;;;;;;;;;;17.79;45.88;100928.16;5079568;28;1910;-63
2022/05/04 06:09:05;;;;;;;;;;;;;;;17.82;45.90;100926.78;5078270;28;1182;-66
2022/05/04 06:11:35;;;;;;;;;;;;;;;17.88;45.82;100922.91;5077415;28;1257;-61
2022/05/04 06:14:01;;;;;;;;;;;;;;;17.88;46.07;100925.66;5076104;28;1636;-62
2022/05/04 06:16:26;;;;;;;;;;;;;;;17.92;46.20;100924.88;5076155;28;1291;-62
2022/05/04 06:18:52;;;;;;;;;;;;;;;17.99;46.09;100927.31;5078955;28;1265;-60
2022/05/04 06:21:17;;;;;;;;;;;;;;;18.05;46.14;100926.19;5077370;28;1351;-60
2022/05/04 06:23:43;;;;;;;;;;;;;;;18.08;46.26;100925.63;5076550;28;1328;-62
2022/05/04 06:26:08;;;;;;;;;;;;;;;18.11;46.50;100924.25;5079486;28;1910;-62
2022/05/04 06:28:34;;;;;;;;;;;;;;;18.18;46.65;100932.22;5075571;28;1417;-63
2022/05/04 06:36:27;;;;;;;;;;;;;;;18.20;46.40;100932.75;5075776;28;1277;-64
2022/05/04 06:38:52;;;;;;;;;;;;;;;18.23;46.31;100943.19;5075596;28;1269;-65
2022/05/04 06:41:18;;;;;;;;;;;;;;;18.29;46.47;100944.84;5075313;28;1351;-63
2022/05/04 06:43:44;;;;;;;;;;;;;;;18.27;46.27;100939.63;5077382;28;1312;-63
2022/05/04 06:46:10;;;;;;;;;;;;;;;18.27;45.95;100944.28;5079267;28;1898;-63
2022/05/04 06:48:35;;;;;;;;;;;;;;;18.09;45.04;100941.06;5094423;28;1272;-63
2022/05/04 06:51:00;;;;;;;;;;;;;;;17.86;44.03;100938.88;5078458;28;1268;-64
2022/05/04 06:53:26;;;;;;;;;;;;;;;17.64;42.65;100940.00;5078326;28;1319;-63
2022/05/04 06:55:51;;;;;;;;;;;;;;;17.45;41.88;100950.75;5083803;28;1301;-63
2022/05/04 06:58:17;;;;;;;;;;;;;;;17.31;41.10;100939.47;5087375;28;1346;-61
2022/05/04 07:00:43;;;;;;;;;;;;;;;17.15;40.74;100940.56;5075856;28;1400;-61
2022/05/04 07:03:08;;;;;;;;;;;;;;;17.04;40.31;100935.06;5081415;28;1300;-60
2022/05/04 07:05:33;;;;;;;;;;;;;;;17.02;39.96;100941.91;5075319;28;1906;-63
2022/05/04 07:07:59;;;;;;;;;;;;;;;17.02;40.50;100941.91;5078439;28;1198;-61
2022/05/04 07:10:24;;;;;;;;;;;;;;;17.18;41.90;100942.75;5078408;28;1055;-61
2022/05/04 07:12:53;;;;;;;;;;;;;;;17.30;42.87;100948.00;5080270;28;1224;-60
2022/05/04 07:15:18;;;;;;;;;;;;;;;17.39;43.71;100941.69;5077964;28;1219;-61
2022/05/04 07:17:44;;;;;;;;;;;;;;;17.52;44.02;100944.97;5077371;28;1043;-61
2022/05/04 07:20:10;;;;;;;;;;;;;;;17.53;44.50;100938.34;5078557;28;1209;-60
2022/05/04 07:22:36;;;;;;;;;;;;;;;17.61;44.69;100932.31;5075664;28;1130;-61
2022/05/04 07:25:01;;;;;;;;;;;;;;;17.58;44.83;100941.09;5074884;28;1910;-62
2022/05/04 07:27:26;;;;;;;;;;;;;;;17.66;44.93;100934.25;5076320;28;1130;-62
2022/05/04 07:29:52;;;;;;;;;;;;;;;17.69;45.15;100940.00;5078401;28;1312;-62
2022/05/04 07:32:17;;;;;;;;;;;;;;;17.73;44.94;100941.09;5075529;28;1390;-63
2022/05/04 07:34:43;;;;;;;;;;;;;;;17.76;44.93;100942.47;5082188;28;1222;-64
2022/05/04 07:37:08;;;;;;;;;;;;;;;17.72;45.20;100950.44;5095268;28;786;-63
2022/05/04 07:42:24;;;;;;;;;;;;;;;17.75;45.34;100944.41;5079787;28;1019;-62
2022/05/04 07:44:59;;;;;;;;;;;;;;;17.83;45.21;100951.25;5079648;28;1094;-62
2022/05/04 07:47:25;;;;;;;;;;;;;;;17.84;45.30;100957.56;5089555;28;858;-61
2022/05/04 07:49:51;;;;;;;;;;;;;;;17.81;45.20;100964.47;5082913;28;1261;-62
2022/05/04 07:52:16;;;;;;;;;;;;;;;17.82;44.97;100968.03;5090919;28;851;-62
2022/05/04 07:54:42;;;;;;;;;;;;;;;17.87;45.02;100965.28;5085363;28;1130;-62
2022/05/04 07:57:08;;;;;;;;;;;;;;;17.87;44.77;100962.53;5082535;28;1059;-63
2022/05/04 07:59:33;;;;;;;;;;;;;;;17.86;44.86;100966.38;5084197;28;980;-63
2022/05/04 08:04:43;;;;;;;;;;;;;;;17.94;44.75;100968.59;5080146;28;832;-61
2022/05/04 08:07:08;;;;;;;;;;;;;;;17.89;45.13;100971.31;5079284;28;1983;-62
2022/05/04 08:09:36;;;;;;;;;;;;;;;17.88;44.99;100972.41;5082555;28;1178;-61
2022/05/04 08:12:02;;;;;;;;;;;;;;;17.91;45.31;100969.16;5088209;28;1226;-64
2022/05/04 08:14:28;;;;;;;;;;;;;;;17.95;45.01;100975.75;5085686;28;1304;-62
2022/05/04 08:16:53;;;;;;;;;;;;;;;17.98;45.07;100966.09;5082096;28;1202;-61
2022/05/04 08:19:19;;;;;;;;;;;;;;;17.97;45.19;100979.03;5083513;28;1167;-63
2022/05/04 08:21:44;;;;;;;;;;;;;;;17.93;45.19;100975.19;5087086;28;1098;-63
2022/05/04 08:24:10;;;;;;;;;;;;;;;18.00;45.17;100972.97;5088869;28;1201;-62
2022/05/04 08:26:35;;;;;;;;;;;;;;;17.94;44.89;100969.41;5087542;28;1901;-63
2022/05/04 08:29:01;;;;;;;;;;;;;;;17.96;45.04;100971.88;5083026;28;1267;-62
2022/05/04 08:31:28;;;;;;;;;;;;;;;17.99;45.11;100971.31;5080794;28;1106;-60
2022/05/04 08:33:54;;;;;;;;;;;;;;;17.99;44.93;100971.31;5082974;28;1245;-60
2022/05/04 08:36:19;;;;;;;;;;;;;;;18.00;44.88;100972.97;5083457;28;1210;-59
2022/05/04 08:38:45;;;;;;;;;;;;;;;18.00;44.81;100972.97;5084378;28;1233;-61
2022/05/04 08:41:10;;;;;;;;;;;;;;;17.99;44.92;100979.56;5087215;28;1091;-59
2022/05/04 08:43:36;;;;;;;;;;;;;;;18.01;44.92;100968.31;5086372;28;1325;-59
2022/05/04 08:46:02;;;;;;;;;;;;;;;18.03;45.02;100977.91;5082389;28;1902;-60
2022/05/04 08:48:35;;;;;;;;;;;;;;;18.03;44.79;100972.41;5080957;28;1048;-60
2022/05/04 08:51:03;;;;;;;;;;;;;;;18.00;45.13;100970.22;5078863;28;738;-60
2022/05/04 08:53:28;;;;;;;;;;;;;;;18.05;45.02;100972.97;5078510;28;1150;-60
2022/05/04 08:55:54;;;;;;;;;;;;;;;18.01;45.08;100973.81;5078995;28;1205;-60
2022/05/04 08:58:19;;;;;;;;;;;;;;;18.07;44.83;100970.75;5079078;28;985;-60
2022/05/04 09:00:45;;;;;;;;;;;;;;;18.04;44.98;100974.06;5081343;28;1048;-60
2022/05/04 09:03:10;;;;;;;;;;;;;;;18.09;45.38;100974.06;5094541;28;742;-61
2022/05/04 09:05:40;;;;;;;;;;;;;;;18.14;45.18;100967.72;5083023;28;1982;-60
2022/05/04 09:08:06;;;;;;;;;;;;;;;18.17;45.24;100969.09;5078260;28;1207;-60
2022/05/04 09:10:35;;;;;;;;;;;;;;;18.15;45.29;100974.06;5087148;28;815;-60
2022/05/04 09:13:02;;;;;;;;;;;;;;;18.18;45.30;100968.81;5096498;28;979;-60
2022/05/04 09:15:29;;;;;;;;;;;;;;;18.16;45.25;100964.69;5084142;28;1202;-60
2022/05/04 09:18:16;;;;;;;;;;;;;;;18.18;45.34;100962.50;5078466;28;1064;-60
2022/05/04 09:20:45;;;;;;;;;;;;;;;18.20;45.41;100960.28;5078319;28;1011;-60
2022/05/04 09:23:16;;;;;;;;;;;;;;;18.27;45.49;100960.78;5077062;28;893;-60
2022/05/04 09:25:42;;;;;;;;;;;;;;;18.26;45.20;100965.50;5078735;28;2028;-62
2022/05/04 09:28:08;;;;;;;;;;;;;;;18.13;45.69;100950.41;5082040;28;1086;-62
2022/05/04 09:30:33;;;;;;;;;;;;;;;18.24;45.47;100948.44;5080711;28;1023;-61
2022/05/04 09:32:59;;;;;;;;;;;;;;;18.22;45.33;100952.56;5077952;28;1052;-62
2022/05/04 09:35:24;;;;;;;;;;;;;;;18.20;45.27;100949.25;5080341;28;1217;-62
2022/05/04 09:46:05;;;;;;;;;;;;;;;18.05;44.75;100953.72;5076344;28;1914;-64
2022/05/04 09:48:31;;;;;;;;;;;;;;;18.05;44.56;100961.97;5084086;28;1066;-64
2022/05/04 09:50:57;;;;;;;;;;;;;;;18.07;44.44;100961.69;5086907;28;961;-64
2022/05/04 09:53:28;;;;;;;;;;;;;;;18.03;44.15;100958.66;5094003;28;849;-66
2022/05/04 09:55:57;;;;;;;;;;;;;;;17.97;44.19;100956.22;5091905;28;938;-65
2022/05/04 09:58:24;;;;;;;;;;;;;;;17.95;44.35;100954.56;5086580;28;1650;-65
2022/05/04 10:00:51;;;;;;;;;;;;;;;17.96;43.97;100949.88;5077639;28;1284;-66
2022/05/04 10:03:18;;;;;;;;;;;;;;;17.94;44.04;100958.41;5082303;28;1328;-66
2022/05/04 10:05:45;;;;;;;;;;;;;;;17.94;44.15;100957.59;5078194;28;1898;-65
2022/05/04 10:08:10;;;;;;;;;;;;;;;17.95;43.91;100954.56;5076777;28;1033;-65
2022/05/04 10:10:36;;;;;;;;;;;;;;;17.86;44.07;100947.94;5079033;28;1288;-64
2022/05/04 10:13:02;;;;;;;;;;;;;;;17.88;43.95;100942.16;5077187;28;1207;-64
2022/05/04 10:15:27;;;;;;;;;;;;;;;17.89;44.14;100943.81;5080916;28;1234;-65
2022/05/04 10:18:04;;;;;;;;;;;;;;;17.93;44.09;100942.19;5076375;28;1218;-65
2022/05/04 10:20:49;;;;;;;;;;;;;;;17.92;44.08;100940.53;5078891;28;1115;-66
2022/05/04 10:23:28;;;;;;;;;;;;;;;17.94;44.21;100941.09;5084410;28;861;-65
2022/05/04 10:25:56;;;;;;;;;;;;;;;17.93;44.34;100934.75;5076820;28;1950;-65
2022/05/04 10:28:21;;;;;;;;;;;;;;;18.01;44.19;100943.56;5078256;28;1056;-65
2022/05/04 10:30:46;;;;;;;;;;;;;;;18.02;44.14;100940.53;5094331;28;942;-65
2022/05/04 10:33:12;;;;;;;;;;;;;;;18.05;44.27;100931.69;5086742;28;1078;-64
2022/05/04 10:35:38;;;;;;;;;;;;;;;18.01;44.51;100927.06;5076894;28;1498;-65
2022/05/04 10:38:08;;;;;;;;;;;;;;;18.05;44.33;100928.13;5081605;28;1268;-65
2022/05/04 10:40:34;;;;;;;;;;;;;;;18.07;44.28;100928.66;5079037;28;1328;-64
2022/05/04 10:43:18;;;;;;;;;;;;;;;18.05;44.18;100926.19;5076733;28;1312;-63
2022/05/04 10:45:45;;;;;;;;;;;;;;;18.03;44.50;100930.34;5078930;28;1973;-64
2022/05/04 10:48:19;;;;;;;;;;;;;;;18.03;44.62;100927.56;5078277;28;1293;-65
2022/05/04 10:50:48;;;;;;;;;;;;;;;18.03;44.49;100924.84;5080458;28;1083;-64
2022/05/04 10:53:36;;;;;;;;;;;;;;;18.04;44.62;100923.72;5076783;28;1091;-64
2022/05/04 10:56:05;;;;;;;;;;;;;;;18.03;44.47;100928.41;5089036;28;1602;-65
2022/05/04 10:58:54;;;;;;;;;;;;;;;17.97;44.50;100923.22;5087197;28;944;-65
2022/05/04 11:01:30;;;;;;;;;;;;;;;17.98;44.53;100928.44;5070143;28;1559;-65
2022/05/04 11:03:57;;;;;;;;;;;;;;;17.92;44.51;100924.88;5075891;28;952;-66
2022/05/04 11:06:22;;;;;;;;;;;;;;;17.99;44.24;100927.31;5074773;28;1901;-65
2022/05/04 11:08:52;;;;;;;;;;;;;;;18.01;44.01;100929.81;5075227;28;1205;-62
2022/05/04 11:11:21;;;;;;;;;;;;;;;17.95;44.34;100929.00;5086524;28;910;-63
2022/05/04 11:13:46;;;;;;;;;;;;;;;17.95;44.01;100931.75;5094594;28;1137;-63
2022/05/04 11:16:12;;;;;;;;;;;;;;;17.97;43.84;100932.28;5076699;28;896;-65
2022/05/04 11:18:38;;;;;;;;;;;;;;;17.99;43.85;100932.81;5074777;28;754;-64
2022/05/04 11:21:06;;;;;;;;;;;;;;;17.93;44.15;100934.75;5075209;28;1017;-64
2022/05/04 11:23:32;;;;;;;;;;;;;;;17.93;43.92;100922.94;5075381;28;814;-62
2022/05/04 11:25:58;;;;;;;;;;;;;;;17.87;43.93;100929.53;5075551;28;1905;-63
2022/05/04 11:28:23;;;;;;;;;;;;;;;17.86;43.65;100927.88;5077342;28;1068;-66
2022/05/04 11:30:49;;;;;;;;;;;;;;;17.87;43.85;100935.03;5080135;28;1245;-66
2022/05/04 11:33:14;;;;;;;;;;;;;;;17.86;43.92;100925.13;5090491;28;1332;-67
2022/05/04 11:35:43;;;;;;;;;;;;;;;17.85;43.67;100926.22;5080568;28;847;-64
2022/05/04 11:38:15;;;;;;;;;;;;;;;17.84;43.98;100925.41;5082290;28;859;-65
2022/05/04 11:40:45;;;;;;;;;;;;;;;17.85;43.97;100921.56;5093735;28;757;-65
2022/05/04 11:43:20;;;;;;;;;;;;;;;17.85;44.03;100912.47;5081253;28;831;-66
2022/05/04 11:45:45;;;;;;;;;;;;;;;17.85;43.91;100915.22;5081014;28;1910;-67
2022/05/04 11:48:11;;;;;;;;;;;;;;;17.85;43.80;100915.22;5083796;28;834;-65
2022/05/04 11:50:36;;;;;;;;;;;;;;;17.84;43.94;100914.41;5087061;28;847;-65
2022/05/04 11:53:02;;;;;;;;;;;;;;;17.91;43.95;100914.16;5078709;28;1102;-60
2022/05/04 11:55:28;;;;;;;;;;;;;;;17.87;44.05;100921.28;5080643;28;1296;-62
2022/05/04 11:57:53;;;;;;;;;;;;;;;17.75;44.03;100910.56;5091378;28;927;-62
2022/05/04 12:00:19;;;;;;;;;;;;;;;17.87;44.13;100924.03;5082363;28;1154;-63
2022/05/04 12:02:44;;;;;;;;;;;;;;;17.83;44.09;100920.19;5094939;28;1237;-62
2022/05/04 12:05:10;;;;;;;;;;;;;;;17.86;44.29;100922.38;5086482;28;1917;-64
2022/05/04 12:07:35;;;;;;;;;;;;;;;17.88;43.91;100922.91;5078593;28;941;-62
2022/05/04 12:10:01;;;;;;;;;;;;;;;17.88;44.29;100911.91;5083536;28;899;-63
2022/05/04 12:12:28;;;;;;;;;;;;;;;17.84;44.13;100911.66;5087347;28;845;-61
2022/05/04 12:14:54;;;;;;;;;;;;;;;17.89;44.12;100911.66;5082005;28;1441;-63
2022/05/04 12:17:26;;;;;;;;;;;;;;;17.85;43.87;100909.72;5080005;28;1198;-64
2022/05/04 12:19:51;;;;;;;;;;;;;;;17.85;44.15;100906.97;5079700;28;790;-63
2022/05/04 12:22:17;;;;;;;;;;;;;;;17.84;43.79;100914.41;5083495;28;933;-63
2022/05/04 12:24:43;;;;;;;;;;;;;;;17.82;43.88;100910.28;5089997;28;1107;-62
2022/05/04 12:27:09;;;;;;;;;;;;;;;17.84;43.82;100917.16;5084746;28;1905;-63
2022/05/04 12:35:22;;;;;;;;;;;;;;;17.85;43.80;100909.72;5033652;28;1268;-65
2022/05/04 12:37:49;;;;;;;;;;;;;;;17.83;43.78;100906.44;5034412;28;1132;-64
2022/05/04 12:40:15;;;;;;;;;;;;;;;17.84;43.72;100908.91;5054255;28;998;-63
2022/05/04 12:42:40;;;;;;;;;;;;;;;17.78;43.74;100910.84;5078566;28;1250;-64
2022/05/04 12:45:06;;;;;;;;;;;;;;;17.86;43.65;100908.63;5078262;28;1905;-64
2022/05/04 12:47:31;;;;;;;;;;;;;;;17.81;43.73;100908.63;5079336;28;1244;-65
2022/05/04 12:49:57;;;;;;;;;;;;;;;17.81;43.72;100914.13;5086137;28;1119;-65
2022/05/04 12:52:22;;;;;;;;;;;;;;;17.76;43.98;100907.53;5086150;28;1245;-65
2022/05/04 12:54:48;;;;;;;;;;;;;;;17.79;43.69;100904.25;5092075;28;977;-65
2022/05/04 12:57:14;;;;;;;;;;;;;;;17.76;43.73;100899.28;5077441;28;954;-63
2022/05/04 12:59:39;;;;;;;;;;;;;;;17.70;43.67;100900.41;5085400;28;944;-65
2022/05/04 13:02:05;;;;;;;;;;;;;;;17.72;43.97;100903.69;5077513;28;797;-65
2022/05/04 13:04:30;;;;;;;;;;;;;;;17.74;43.58;100904.25;5077127;28;895;-63
2022/05/04 13:06:56;;;;;;;;;;;;;;;17.74;43.67;100898.75;5084592;28;1918;-66
2022/05/04 13:09:21;;;;;;;;;;;;;;;17.74;43.56;100898.75;5077397;28;904;-63
2022/05/04 13:11:47;;;;;;;;;;;;;;;17.71;43.95;100899.31;5080838;28;1005;-63
2022/05/04 13:14:13;;;;;;;;;;;;;;;17.73;43.90;100901.78;5080812;28;1095;-63
2022/05/04 13:16:40;;;;;;;;;;;;;;;17.72;44.00;100900.94;5079790;28;1103;-64
2022/05/04 13:19:06;;;;;;;;;;;;;;;17.76;43.79;100906.72;5080129;28;1345;-64
2022/05/04 13:21:31;;;;;;;;;;;;;;;17.75;44.08;100908.66;5078165;28;1095;-65